createdAt,value
2017-11-13T00:01:07.012Z,4.60
2017-11-13T00:03:34.744Z,4.50
2017-11-13T00:06:03.205Z,4.30
2017-11-13T00:08:30.772Z,4.40
2017-11-13T00:10:58.340Z,4.40
2017-11-13T00:13:26.101Z,4.40
2017-11-13T00:15:53.598Z,4.40
2017-11-13T00:18:21.110Z,4.40
2017-11-13T00:20:48.615Z,4.40
2017-11-13T00:23:16.918Z,4.40
2017-11-13T00:25:46.328Z,4.40
2017-11-13T00:28:13.897Z,4.50
2017-11-13T00:30:41.680Z,4.50
2017-11-13T00:33:09.443Z,4.60
2017-11-13T00:35:36.945Z,4.50
2017-11-13T00:38:04.461Z,4.60
2017-11-13T00:40:31.966Z,4.70
2017-11-13T00:43:00.242Z,4.70
2017-11-13T00:45:27.941Z,4.70
2017-11-13T00:47:55.437Z,4.70
2017-11-13T00:50:23.058Z,4.70
2017-11-13T00:52:50.641Z,4.70
2017-11-13T00:55:18.173Z,4.80
2017-11-13T00:57:45.845Z,4.70
2017-11-13T01:00:13.342Z,4.80
2017-11-13T01:02:40.952Z,4.70
2017-11-13T01:05:08.526Z,4.60
2017-11-13T01:07:36.285Z,4.50
2017-11-13T01:10:03.819Z,4.60
2017-11-13T01:12:31.505Z,4.70
2017-11-13T01:14:59.055Z,4.60
2017-11-13T01:17:26.553Z,4.60
2017-11-13T01:19:54.789Z,4.60
2017-11-13T01:22:22.305Z,4.70
2017-11-13T01:24:49.790Z,4.70
2017-11-13T01:27:17.347Z,4.70
2017-11-13T01:29:44.934Z,4.70
2017-11-13T01:32:12.437Z,4.80
2017-11-13T01:34:40.359Z,4.70
2017-11-13T01:37:07.861Z,4.70
2017-11-13T01:39:35.361Z,4.60
2017-11-13T01:42:02.873Z,4.60
2017-11-13T01:44:30.366Z,4.60
2017-11-13T01:46:58.028Z,4.60
2017-11-13T01:49:25.817Z,4.60
2017-11-13T01:51:53.334Z,4.60
2017-11-13T01:54:20.826Z,4.70
2017-11-13T01:56:48.333Z,4.60
2017-11-13T01:59:16.599Z,4.40
2017-11-13T02:01:44.321Z,4.40
2017-11-13T02:04:11.825Z,4.30
2017-11-13T02:06:39.325Z,4.20
2017-11-13T02:09:06.824Z,4.30
2017-11-13T02:11:34.349Z,4.20
2017-11-13T02:14:02.025Z,4.20
2017-11-13T02:16:29.521Z,4.20
2017-11-13T02:18:57.783Z,4.20
2017-11-13T02:21:25.293Z,4.20
2017-11-13T02:23:52.802Z,4.20
2017-11-13T02:26:21.069Z,4.20
2017-11-13T02:28:48.587Z,4.20
2017-11-13T02:31:16.081Z,4.30
2017-11-13T02:33:44.289Z,4.40
2017-11-13T02:36:11.797Z,4.30
2017-11-13T02:38:39.303Z,4.40
2017-11-13T02:41:06.809Z,4.40
2017-11-13T02:43:34.330Z,4.40
2017-11-13T02:46:01.918Z,4.30
2017-11-13T02:48:29.435Z,4.30
2017-11-13T02:50:56.946Z,4.20
2017-11-13T02:53:24.453Z,4.30
2017-11-13T02:55:51.976Z,4.30
2017-11-13T02:58:19.484Z,4.30
2017-11-13T03:00:46.982Z,4.20
2017-11-13T03:03:14.730Z,4.00
2017-11-13T03:05:42.221Z,4.00
2017-11-13T03:08:09.724Z,3.90
2017-11-13T03:10:37.422Z,3.90
2017-11-13T03:13:05.174Z,3.80
2017-11-13T03:15:32.673Z,3.90
2017-11-13T03:18:00.195Z,3.90
2017-11-13T03:20:27.701Z,3.80
2017-11-13T03:22:55.297Z,3.80
2017-11-13T03:25:22.801Z,3.70
2017-11-13T03:27:50.478Z,3.70
2017-11-13T03:30:18.016Z,3.60
2017-11-13T03:32:45.701Z,3.60
2017-11-13T03:35:13.220Z,3.60
2017-11-13T03:37:42.333Z,3.80
2017-11-13T03:40:10.871Z,3.90
2017-11-13T03:42:38.373Z,3.90
2017-11-13T03:45:06.070Z,3.80
2017-11-13T03:47:33.576Z,3.80
2017-11-13T03:50:01.923Z,3.80
2017-11-13T03:52:29.430Z,3.90
2017-11-13T03:54:57.149Z,3.80
2017-11-13T03:57:24.653Z,3.80
2017-11-13T03:59:52.942Z,3.90
2017-11-13T04:02:20.442Z,3.70
2017-11-13T04:04:47.949Z,3.60
2017-11-13T04:07:15.457Z,3.80
2017-11-13T04:09:43.094Z,3.90
2017-11-13T04:12:10.591Z,3.80
2017-11-13T04:14:38.213Z,3.80
2017-11-13T04:17:05.837Z,3.70
2017-11-13T04:19:33.365Z,3.70
2017-11-13T04:22:00.859Z,3.80
2017-11-13T04:24:29.118Z,3.80
2017-11-13T04:26:56.840Z,3.80
2017-11-13T04:29:24.610Z,3.70
2017-11-13T04:31:52.617Z,3.50
2017-11-13T04:34:20.121Z,3.30
2017-11-13T04:36:47.620Z,3.30
2017-11-13T04:39:15.357Z,3.30
2017-11-13T04:41:42.862Z,3.30
2017-11-13T04:44:10.469Z,3.30
2017-11-13T04:46:37.989Z,3.30
2017-11-13T04:49:05.486Z,3.30
2017-11-13T04:51:32.995Z,3.40
2017-11-13T04:54:00.669Z,3.40
2017-11-13T04:56:28.873Z,3.40
2017-11-13T04:58:56.542Z,3.40
2017-11-13T05:01:24.053Z,3.50
2017-11-13T05:03:51.550Z,3.50
2017-11-13T05:06:19.057Z,3.50
2017-11-13T05:08:47.596Z,3.60
2017-11-13T05:11:15.365Z,3.50
2017-11-13T05:13:42.871Z,3.50
2017-11-13T05:16:10.356Z,3.50
2017-11-13T05:18:37.873Z,3.50
2017-11-13T05:21:06.197Z,3.30
2017-11-13T05:23:33.697Z,3.30
2017-11-13T05:26:01.212Z,3.20
2017-11-13T05:28:28.709Z,3.20
2017-11-13T05:30:56.218Z,3.10
2017-11-13T05:33:23.724Z,3.10
2017-11-13T05:35:51.232Z,3.10
2017-11-13T05:38:18.892Z,3.10
2017-11-13T05:40:46.381Z,3.00
2017-11-13T05:43:13.886Z,3.00
2017-11-13T05:45:41.576Z,3.10
2017-11-13T05:48:09.081Z,3.10
2017-11-13T05:50:36.578Z,3.10
2017-11-13T05:53:04.073Z,3.20
2017-11-13T05:55:31.577Z,3.20
2017-11-13T05:57:59.836Z,3.10
2017-11-13T06:00:27.517Z,3.10
2017-11-13T06:02:55.019Z,3.10
2017-11-13T06:05:22.509Z,2.90
2017-11-13T06:07:50.017Z,2.90
2017-11-13T06:10:17.656Z,2.80
2017-11-13T06:12:45.142Z,2.90
2017-11-13T06:15:12.636Z,2.90
2017-11-13T06:17:40.148Z,2.80
2017-11-13T06:20:07.644Z,2.80
2017-11-13T06:22:35.802Z,2.70
2017-11-13T06:25:03.297Z,2.70
2017-11-13T06:27:30.812Z,2.70
2017-11-13T06:29:58.309Z,2.60
2017-11-13T06:32:26.026Z,2.70
2017-11-13T06:34:53.524Z,2.60
2017-11-13T06:37:21.245Z,2.60
2017-11-13T06:39:49.161Z,2.60
2017-11-13T06:42:17.414Z,2.60
2017-11-13T06:44:45.013Z,2.60
2017-11-13T06:47:12.571Z,2.50
2017-11-13T06:49:40.063Z,2.50
2017-11-13T06:52:07.867Z,2.40
2017-11-13T06:54:35.589Z,2.40
2017-11-13T06:57:03.080Z,2.40
2017-11-13T06:59:31.637Z,2.30
2017-11-13T07:01:59.165Z,2.30
2017-11-13T07:04:26.657Z,2.40
2017-11-13T07:06:54.296Z,2.50
2017-11-13T07:09:21.865Z,2.50
2017-11-13T07:11:49.642Z,2.40
2017-11-13T07:14:18.046Z,2.50
2017-11-13T07:16:45.553Z,2.50
2017-11-13T07:19:13.226Z,2.50
2017-11-13T07:21:40.725Z,3.50
2017-11-13T07:24:08.218Z,3.80
2017-11-13T07:26:35.717Z,3.90
2017-11-13T07:29:03.226Z,3.30
2017-11-13T07:31:30.732Z,3.00
2017-11-13T07:33:58.220Z,2.90
2017-11-13T07:36:25.911Z,2.90
2017-11-13T07:38:53.389Z,3.00
2017-11-13T07:41:20.953Z,3.10
2017-11-13T07:43:48.446Z,3.10
2017-11-13T07:46:15.936Z,3.10
2017-11-13T07:48:43.719Z,3.00
2017-11-13T07:51:11.385Z,3.00
2017-11-13T07:53:38.886Z,3.00
2017-11-13T07:56:06.381Z,3.00
2017-11-13T07:58:33.873Z,3.00
2017-11-13T08:01:01.521Z,3.10
2017-11-13T08:03:29.018Z,3.10
2017-11-13T08:05:56.513Z,3.40
2017-11-13T08:08:24.808Z,3.70
2017-11-13T08:10:52.304Z,3.60
2017-11-13T08:13:19.813Z,3.70
2017-11-13T08:15:47.301Z,3.60
2017-11-13T08:18:14.797Z,3.40
2017-11-13T08:20:42.402Z,3.30
2017-11-13T08:23:10.162Z,3.40
2017-11-13T08:25:37.648Z,3.50
2017-11-13T08:28:05.426Z,3.60
2017-11-13T08:30:32.925Z,3.60
2017-11-13T08:33:00.414Z,3.80
2017-11-13T08:35:27.921Z,3.80
2017-11-13T08:37:55.413Z,3.90
2017-11-13T08:40:23.954Z,4.00
2017-11-13T08:42:51.621Z,3.90
2017-11-13T08:45:19.120Z,4.00
2017-11-13T08:47:46.626Z,4.00
2017-11-13T08:50:14.130Z,4.10
2017-11-13T08:52:41.730Z,4.20
2017-11-13T08:55:09.240Z,4.20
2017-11-13T08:57:37.195Z,4.30
2017-11-13T09:00:04.778Z,4.30
2017-11-13T09:02:32.274Z,4.30
2017-11-13T09:04:59.913Z,4.30
2017-11-13T09:07:27.792Z,4.50
2017-11-13T09:09:55.338Z,4.60
2017-11-13T09:12:22.847Z,4.60
2017-11-13T09:14:50.416Z,4.70
2017-11-13T09:17:17.913Z,4.70
2017-11-13T09:19:45.408Z,4.80
2017-11-13T09:22:12.919Z,4.90
2017-11-13T09:24:40.409Z,4.90
2017-11-13T09:27:08.680Z,5.10
2017-11-13T09:29:36.402Z,5.10
2017-11-13T09:32:03.909Z,5.20
2017-11-13T09:34:31.626Z,5.20
2017-11-13T09:36:59.127Z,5.20
2017-11-13T09:39:26.625Z,5.20
2017-11-13T09:41:54.317Z,5.30
2017-11-13T09:44:21.805Z,5.30
2017-11-13T09:46:49.320Z,5.40
2017-11-13T09:49:16.985Z,5.50
2017-11-13T09:51:44.489Z,5.60
2017-11-13T09:54:11.997Z,5.70
2017-11-13T09:56:39.516Z,5.80
2017-11-13T09:59:07.073Z,5.70
2017-11-13T10:01:34.576Z,5.70
2017-11-13T10:04:02.079Z,5.80
2017-11-13T10:06:29.590Z,5.80
2017-11-13T10:08:57.791Z,6.00
2017-11-13T10:11:25.315Z,6.10
2017-11-13T10:13:52.813Z,6.30
2017-11-13T10:16:20.335Z,6.30
2017-11-13T10:18:47.948Z,6.30
2017-11-13T10:21:15.445Z,6.40
2017-11-13T10:23:42.949Z,6.40
2017-11-13T10:26:10.845Z,7.70
2017-11-13T10:28:38.356Z,6.60
2017-11-13T10:31:05.860Z,6.70
2017-11-13T10:33:33.369Z,6.80
2017-11-13T10:36:00.883Z,6.80
2017-11-13T10:38:28.382Z,6.80
2017-11-13T10:40:56.018Z,6.90
2017-11-13T10:43:23.549Z,6.80
2017-11-13T10:45:51.046Z,7.00
2017-11-13T10:48:18.549Z,7.00
2017-11-13T10:50:46.103Z,7.00
2017-11-13T10:53:13.617Z,7.00
2017-11-13T10:55:41.114Z,7.10
2017-11-13T10:58:08.801Z,7.10
2017-11-13T11:00:36.345Z,7.00
2017-11-13T11:03:03.945Z,7.00
2017-11-13T11:05:31.442Z,7.10
2017-11-13T11:07:59.714Z,7.10
2017-11-13T11:10:27.977Z,7.20
2017-11-13T11:12:55.481Z,7.20
2017-11-13T11:15:23.926Z,7.30
2017-11-13T11:17:53.954Z,7.40
2017-11-13T11:20:31.765Z,7.40
2017-11-13T11:23:09.214Z,7.40
2017-11-13T11:25:37.260Z,7.40
2017-11-13T11:28:07.173Z,7.50
2017-11-13T11:30:40.272Z,7.60
2017-11-13T11:33:22.459Z,7.60
2017-11-13T11:35:52.815Z,7.50
2017-11-13T11:38:20.304Z,7.60
2017-11-13T11:40:53.447Z,7.70
2017-11-13T11:43:21.240Z,7.70
2017-11-13T11:45:48.739Z,7.80
2017-11-13T11:48:31.123Z,7.80
2017-11-13T11:50:58.621Z,6.50
2017-11-13T11:53:26.121Z,7.80
2017-11-13T11:55:54.397Z,7.90
2017-11-13T11:58:21.900Z,7.80
2017-11-13T12:00:49.421Z,7.80
2017-11-13T12:03:17.696Z,7.80
2017-11-13T12:05:45.204Z,7.80
2017-11-13T12:08:12.697Z,7.90
2017-11-13T12:10:40.968Z,7.90
2017-11-13T12:13:08.469Z,7.90
2017-11-13T12:15:35.973Z,7.90
2017-11-13T12:18:03.924Z,7.90
2017-11-13T12:20:31.685Z,8.00
2017-11-13T12:22:59.209Z,7.90
2017-11-13T12:25:26.895Z,8.00
2017-11-13T12:27:54.393Z,8.00
2017-11-13T12:30:21.934Z,8.00
2017-11-13T12:32:49.417Z,8.10
2017-11-13T12:35:17.691Z,8.20
2017-11-13T12:37:45.441Z,8.20
2017-11-13T12:40:12.938Z,8.20
2017-11-13T12:42:40.446Z,8.20
2017-11-13T12:45:08.090Z,8.20
2017-11-13T12:47:35.593Z,8.20
2017-11-13T12:50:03.189Z,8.20
2017-11-13T12:52:31.484Z,8.30
2017-11-13T12:54:58.986Z,8.30
2017-11-13T12:57:27.258Z,8.40
2017-11-13T12:59:54.754Z,8.40
2017-11-13T13:02:22.286Z,8.50
2017-11-13T13:04:50.550Z,8.40
2017-11-13T13:07:18.049Z,8.40
2017-11-13T13:09:45.545Z,8.40
2017-11-13T13:12:13.048Z,8.30
2017-11-13T13:14:40.643Z,8.20
2017-11-13T13:17:08.375Z,8.20
2017-11-13T13:19:35.873Z,8.30
2017-11-13T13:22:03.362Z,8.30
2017-11-13T13:24:30.871Z,8.30
2017-11-13T13:26:58.501Z,8.20
2017-11-13T13:29:26.004Z,8.20
2017-11-13T13:31:53.499Z,8.20
2017-11-13T13:34:21.818Z,8.20
2017-11-13T13:36:49.306Z,8.20
2017-11-13T13:39:16.821Z,8.20
2017-11-13T13:41:44.506Z,8.20
2017-11-13T13:44:12.001Z,8.20
2017-11-13T13:46:40.342Z,8.20
2017-11-13T13:49:07.842Z,8.20
2017-11-13T13:51:35.342Z,8.20
2017-11-13T13:54:02.875Z,8.20
2017-11-13T13:56:30.375Z,8.20
2017-11-13T13:58:57.871Z,8.20
2017-11-13T14:01:25.377Z,8.10
2017-11-13T14:03:52.873Z,8.20
2017-11-13T14:06:20.783Z,8.20
2017-11-13T14:08:48.285Z,8.10
2017-11-13T14:11:16.578Z,8.00
2017-11-13T14:13:44.078Z,8.00
2017-11-13T14:16:11.571Z,8.00
2017-11-13T14:18:39.097Z,7.90
2017-11-13T14:21:06.881Z,8.00
2017-11-13T14:23:34.372Z,8.10
2017-11-13T14:26:01.977Z,8.10
2017-11-13T14:28:30.352Z,8.00
2017-11-13T14:30:57.862Z,8.00
2017-11-13T14:33:25.389Z,8.00
2017-11-13T14:35:52.890Z,8.00
2017-11-13T14:38:20.493Z,8.00
2017-11-13T14:40:48.046Z,7.90
2017-11-13T14:43:15.661Z,8.00
2017-11-13T14:45:43.929Z,8.10
2017-11-13T14:48:11.421Z,8.00
2017-11-13T14:50:38.928Z,8.00
2017-11-13T14:53:06.424Z,8.00
2017-11-13T14:55:34.698Z,7.80
2017-11-13T14:58:02.975Z,7.80
2017-11-13T15:00:30.519Z,7.80
2017-11-13T15:02:58.205Z,7.80
2017-11-13T15:05:25.712Z,7.80
2017-11-13T15:07:53.207Z,7.80
2017-11-13T15:10:20.737Z,7.80
2017-11-13T15:12:48.237Z,7.70
2017-11-13T15:15:15.738Z,7.70
2017-11-13T15:17:43.237Z,7.60
2017-11-13T15:20:10.765Z,7.60
2017-11-13T15:22:38.283Z,7.60
2017-11-13T15:25:05.973Z,7.60
2017-11-13T15:27:33.489Z,7.60
2017-11-13T15:30:00.972Z,7.50
2017-11-13T15:32:28.622Z,7.40
2017-11-13T15:34:56.119Z,7.40
2017-11-13T15:37:23.616Z,7.30
2017-11-13T15:39:51.114Z,7.30
2017-11-13T15:42:18.633Z,7.30
2017-11-13T15:44:46.538Z,7.20
2017-11-13T15:47:14.313Z,7.20
2017-11-13T15:49:42.065Z,7.20
2017-11-13T15:52:09.570Z,7.20
2017-11-13T15:54:37.066Z,7.20
2017-11-13T15:57:04.569Z,7.10
2017-11-13T15:59:32.200Z,7.00
2017-11-13T16:01:59.961Z,7.00
2017-11-13T16:04:28.215Z,7.00
2017-11-13T16:06:55.761Z,7.00
2017-11-13T16:09:23.260Z,7.00
2017-11-13T16:11:50.789Z,6.90
2017-11-13T16:14:18.313Z,6.90
2017-11-13T16:16:46.568Z,6.80
2017-11-13T16:19:14.308Z,6.80
2017-11-13T16:21:41.810Z,6.80
2017-11-13T16:24:09.744Z,6.80
2017-11-13T16:26:37.244Z,6.80
2017-11-13T16:29:04.744Z,6.70
2017-11-13T16:31:32.279Z,6.70
2017-11-13T16:33:59.750Z,6.60
2017-11-13T16:36:27.237Z,6.60
2017-11-13T16:38:54.737Z,6.50
2017-11-13T16:41:22.233Z,6.60
2017-11-13T16:43:49.753Z,6.40
2017-11-13T16:46:17.255Z,6.50
2017-11-13T16:48:44.748Z,6.50
2017-11-13T16:51:12.469Z,6.40
2017-11-13T16:53:40.229Z,6.40
2017-11-13T16:56:07.727Z,6.30
2017-11-13T16:58:35.269Z,6.30
2017-11-13T17:01:02.745Z,6.20
2017-11-13T17:03:31.059Z,6.20
2017-11-13T17:05:58.555Z,6.20
2017-11-13T17:08:26.129Z,6.20
2017-11-13T17:10:54.405Z,6.10
2017-11-13T17:13:21.921Z,6.10
2017-11-13T17:15:49.496Z,6.10
2017-11-13T17:18:16.997Z,6.00
2017-11-13T17:20:44.714Z,6.00
2017-11-13T17:23:12.220Z,6.00
2017-11-13T17:25:39.713Z,6.00
2017-11-13T17:28:07.222Z,6.00
2017-11-13T17:30:35.514Z,6.00
2017-11-13T17:33:03.221Z,6.00
2017-11-13T17:35:30.724Z,6.00
2017-11-13T17:37:58.546Z,6.10
2017-11-13T17:40:26.060Z,6.10
2017-11-13T17:42:53.577Z,6.10
2017-11-13T17:45:21.094Z,6.10
2017-11-13T17:47:48.881Z,6.10
2017-11-13T17:50:16.641Z,6.00
2017-11-13T17:52:44.153Z,6.00
2017-11-13T17:55:11.662Z,6.00
2017-11-13T17:57:39.167Z,6.00
2017-11-13T18:00:07.698Z,6.00
2017-11-13T18:02:35.225Z,6.00
2017-11-13T18:05:02.737Z,5.90
2017-11-13T18:07:30.224Z,5.70
2017-11-13T18:09:57.748Z,5.60
2017-11-13T18:12:25.277Z,5.60
2017-11-13T18:14:52.826Z,5.70
2017-11-13T18:17:20.316Z,5.70
2017-11-13T18:19:47.821Z,5.70
2017-11-13T18:22:15.342Z,5.60
2017-11-13T18:24:43.618Z,5.70
2017-11-13T18:27:11.235Z,5.60
2017-11-13T18:29:39.021Z,5.70
2017-11-13T18:32:06.525Z,5.70
2017-11-13T18:34:34.042Z,5.70
2017-11-13T18:37:01.550Z,5.60
2017-11-13T18:39:29.825Z,5.50
2017-11-13T18:41:57.359Z,5.50
2017-11-13T18:44:24.982Z,5.40
2017-11-13T18:46:52.546Z,5.30
2017-11-13T18:49:20.919Z,5.30
2017-11-13T18:51:48.568Z,5.20
2017-11-13T18:54:16.056Z,5.20
2017-11-13T18:56:43.555Z,5.30
2017-11-13T18:59:11.064Z,5.20
2017-11-13T19:01:38.627Z,5.10
2017-11-13T19:04:06.185Z,5.10
2017-11-13T19:06:33.687Z,5.20
2017-11-13T19:09:01.194Z,5.10
2017-11-13T19:11:28.854Z,5.20
2017-11-13T19:13:56.349Z,5.10
2017-11-13T19:16:23.888Z,5.10
2017-11-13T19:18:51.404Z,5.10
2017-11-13T19:21:18.898Z,5.00
2017-11-13T19:23:46.443Z,4.90
2017-11-13T19:26:13.939Z,4.90
2017-11-13T19:28:41.640Z,4.80
2017-11-13T19:31:09.140Z,4.80
2017-11-13T19:33:36.767Z,4.80
2017-11-13T19:36:04.518Z,4.80
2017-11-13T19:38:32.027Z,4.70
2017-11-13T19:40:59.533Z,4.60
2017-11-13T19:43:27.046Z,4.70
2017-11-13T19:45:54.544Z,4.60
2017-11-13T19:48:22.061Z,4.60
2017-11-13T19:50:49.572Z,4.60
2017-11-13T19:53:17.148Z,4.60
2017-11-13T19:55:44.920Z,4.60
2017-11-13T19:58:12.443Z,4.70
2017-11-13T20:00:39.943Z,4.60
2017-11-13T20:03:07.593Z,4.60
2017-11-13T20:05:35.141Z,4.60
2017-11-13T20:08:02.805Z,4.50
2017-11-13T20:10:30.319Z,4.50
2017-11-13T20:12:57.819Z,4.50
2017-11-13T20:15:25.319Z,4.50
2017-11-13T20:17:53.586Z,4.40
2017-11-13T20:20:21.098Z,4.40
2017-11-13T20:22:48.608Z,4.50
2017-11-13T20:25:16.223Z,4.50
2017-11-13T20:27:43.834Z,4.50
2017-11-13T20:30:12.101Z,4.40
2017-11-13T20:32:41.161Z,4.40
2017-11-13T20:35:08.697Z,4.40
2017-11-13T20:37:36.184Z,4.30
2017-11-13T20:40:03.693Z,4.30
2017-11-13T20:42:31.201Z,4.30
2017-11-13T20:44:58.706Z,4.30
2017-11-13T20:47:26.281Z,4.20
2017-11-13T20:49:53.789Z,4.30
2017-11-13T20:52:22.236Z,4.20
2017-11-13T20:54:49.733Z,4.20
2017-11-13T20:57:17.463Z,4.20
2017-11-13T20:59:44.958Z,4.10
2017-11-13T21:02:12.466Z,4.10
2017-11-13T21:04:40.188Z,4.00
2017-11-13T21:07:07.684Z,3.90
2017-11-13T21:09:35.201Z,3.90
2017-11-13T21:12:03.488Z,3.90
2017-11-13T21:14:31.189Z,3.90
2017-11-13T21:16:58.688Z,3.80
2017-11-13T21:19:26.190Z,3.80
2017-11-13T21:21:53.708Z,3.80
2017-11-13T21:24:21.991Z,3.80
2017-11-13T21:26:50.909Z,3.80
2017-11-13T21:29:18.407Z,3.80
2017-11-13T21:31:46.114Z,3.80
2017-11-13T21:34:13.917Z,3.80
2017-11-13T21:36:41.676Z,3.70
2017-11-13T21:39:09.885Z,3.70
2017-11-13T21:41:38.149Z,3.70
2017-11-13T21:44:05.660Z,3.70
2017-11-13T21:46:33.268Z,3.70
2017-11-13T21:49:01.637Z,3.60
2017-11-13T21:51:29.145Z,3.60
2017-11-13T21:53:56.648Z,3.60
2017-11-13T21:56:24.175Z,3.60
2017-11-13T21:58:52.365Z,3.60
2017-11-13T22:01:19.924Z,3.60
2017-11-13T22:03:47.443Z,3.60
2017-11-13T22:06:14.949Z,3.50
2017-11-13T22:08:43.243Z,3.50
2017-11-13T22:11:10.731Z,3.60
2017-11-13T22:13:38.437Z,3.50
2017-11-13T22:16:06.202Z,3.50
2017-11-13T22:18:33.698Z,3.60
2017-11-13T22:21:01.206Z,3.60
2017-11-13T22:23:28.700Z,3.60
2017-11-13T22:25:56.209Z,3.60
2017-11-13T22:28:23.697Z,3.70
2017-11-13T22:30:51.244Z,3.60
2017-11-13T22:33:19.013Z,3.80
2017-11-13T22:35:46.773Z,3.70
2017-11-13T22:38:14.269Z,3.80
2017-11-13T22:40:41.776Z,3.80
2017-11-13T22:43:09.278Z,3.80
2017-11-13T22:45:36.785Z,3.90
2017-11-13T22:48:04.330Z,3.90
2017-11-13T22:50:31.829Z,3.90
2017-11-13T22:52:59.345Z,3.90
2017-11-13T22:55:26.986Z,3.80
2017-11-13T22:57:54.505Z,3.80
2017-11-13T23:00:22.258Z,3.80
2017-11-13T23:02:49.757Z,3.80
2017-11-13T23:05:17.267Z,3.90
2017-11-13T23:07:44.771Z,3.90
2017-11-13T23:10:13.035Z,4.00
2017-11-13T23:12:40.557Z,3.90
2017-11-13T23:15:08.166Z,4.00
2017-11-13T23:17:35.680Z,4.00
2017-11-13T23:20:03.437Z,3.90
2017-11-13T23:22:30.942Z,4.00
2017-11-13T23:24:58.744Z,4.00
2017-11-13T23:27:26.397Z,4.00
2017-11-13T23:29:55.081Z,4.00
2017-11-13T23:32:22.901Z,4.00
2017-11-13T23:34:51.205Z,4.10
2017-11-13T23:37:18.808Z,4.00
2017-11-13T23:39:46.473Z,4.00
2017-11-13T23:42:13.968Z,4.00
2017-11-13T23:44:41.474Z,4.00
2017-11-13T23:47:08.970Z,4.00
2017-11-13T23:49:36.612Z,3.90
2017-11-13T23:52:04.376Z,3.90
2017-11-13T23:54:37.969Z,3.90
2017-11-13T23:57:06.349Z,3.90
2017-11-13T23:59:33.849Z,4.00
